Timeline UpdatesTrip UpdatesNews PostsPvt PostsTravel TipsAdmin PostsConv PostsFollowed PostsChat RequestsBlog PostsPNR Posts

Disclaimer
Search
 
 
Thu Sep 18, 2014 11:12:36 ISTHomeTrainsΣChainsAtlasPNRForumGalleryNewsFAQTripsMembersLoginFeedback
No Recent News for this Train
Other Trains in the News **new
Latest...
.
Mon Nov 18, 2013 (08:49PM)
⇐ Return Journey: Train# 14650

14649/Saryu Yamuna Express

Time-Table HAS CHANGED.
Sep 03 (8:34PM)
Change Departure Station:
Change Arrival Station:
Post a Train Travel TipPost a Train Travel Tip **new
Post a Comment/Question/Picture/VideoPost a Comment/Question/Picture/Video
Pantry/Catering
✕ NO Pantry Car
✕ NO Catering
Loco/Rake Reversals
SPJ/Samastipur Junction (9); SHG/Shahganj Junction (4);
RSA - Rake Sharing
14673/74 Shaheed Express.
Rake/Coach Composition
LOCO,SLR,UR,UR,S1,S2,S3,S4,B1,AB1,S5,S6,S7,UR,UR,UR,UR,UR,UR,UR,UR,SLR
Loco
JYG-DLI=>TKD WDM 3A DLI-ASR=>GZB WAP 5/7
News    PNR    Forum    Time-Table    Availability    Fare Chart    Map    Arr/Dep History    Trips    Gallery    ΣChains    X/O    Timeline    
Travel Time: 41h 0m    59 halts    Distance: 1671 km    Avg Speed: 40 km/hr
Type: Mail/Express
Zone: NR/Northern
Departs @ 06:30
Platform# ???
S T  F 
Jaynagar/JYG 
Arrives @ 23:30 +1 night
Platform# 4
 M W  S
Amritsar Junction/ASR 

59 halts. 273 intermediate Stations between Jaynagar and Amritsar Junction

Show ALL intermediate Stations  Show Old Time-Table

#CodeStation NameX/OArrivesAvgDepartsAvgHaltPFDay#KmSpeedElevZoneAddress
1JYGJaynagar (3)»  -06:30---10.05668mECRDistt: Madhubani, Bihar
2KJIKhajauli  06:44 06:43-06:45-1 2m--112.05670mECRMadhubani, Bihar
3RJARajanagar  06:56 06:55-06:57-1 2m--121.34665mECRRajnagar Distt: Madhubani, Bihar
4MBIMadhubani (3)  07:14 07:10-07:15-1 5m--131.24962mECRMadhubani, Bihar
5PDWPandaulX  07:24 07:26-07:25 07:28-1 2m--140.22559mECRMadhubani, Bihar
6SKISakri Junction (5)  07:47-07:52-5m--148.15755mECRMadhubani, Bihar
7TRSTarsarai  08:00 07:59-08:01-1 2m--154.74454mECRDarbhanga, Bihar
8KKHTKakarghatti  08:10-08:11 08:12-1 2m--161.31254mECRDarbhanga, Bihar
9DBGDarbhanga Junction (5)X  08:45-09:13-28m2167.74354mECRDarbhanga, Bihar
10LSILaheria Sarai (1)X  09:20-09:25-5m1172.76952mECRDarbhanga, Bihar
11HYTHaiaghat  09:36 09:34-09:37 09:36-1 2m--183.11951mECRDarbhanga, Bihar
12SPJSamastipur Junction (9)10:45-11:05-20m--1105.17055mECRSamastipur, Bihar
13MFPMuzaffarpur Junction (6)  11:55 11:50-12:05 11:55-10 5m31157.26957mECRMuzaffarpur, Bihar
14HJPHajipur Junction (3)X  12:59 12:42-13:00 12:47-1 5m11211.13355mECR06224-272230, Bihar
15SEESonpur Junction (4)X  13:10 12:57-13:20 13:02-10 5m--1216.63956mECRSaran, Bihar
16CPRChhapra Junction (6)X  14:25-14:40 14:35-15 10m--1270.66758mNERDistt: Saran, Bihar
17SIPSuraimanpurX  15:07 15:01-15:08 15:03-1 2m--1299.84660mNERBallia, Uttar Pradesh
18BUIBallia (3)  15:50-15:55-5m--1336.25662mNERBallia, Uttar Pradesh
19RSRRasra (2)  16:31 16:30-16:32-1 2m--1368.95570mNERRasra, Uttar Pradesh
20IAAIndara Junction (3)X  17:05 17:03-17:07 17:05-2m--1397.23074mNERMau, Uttar Pradesh
21MAUMau Junction (4)  17:20 17:21-17:35-15 14m41405.16275mNERMau., Uttar Pradesh
22MMAMuhammadabad (2)X  17:57 17:56-17:58-1 2m11426.83580mNERMuhammadabad Marg, Uttar Pradesh
23AMHAzamgarh (2)  18:35-18:40-5m11448.46581mNERAzamgarh, Uttar Pradesh
24SMZSarai Mir (2)  19:05 19:04-19:06-1 2m11474.24487mNERTowa Ahirana, Uttar Pradesh
25KRNDKhorason Road (2)  19:18-19:19-1m11483.12885mNERUttar Pradesh 276304 ?, Uttar Pradesh
26SHGShahganj Junction (4)20:05-20:30-25m--1504.37490mNRShahganj, Uttar Pradesh
27ABPAkbarpur Junction (2)  21:06-21:08-2m11548.47492mNRAkbarpur, Uttar Pradesh
28AYAyodhya Junction (3)  21:52-21:53 21:54-1 2m11602.31998mNRAyodhya, Uttar Pradesh
29FDFaizabad Junction (5)X  22:15-22:20-5m11609.074104mNRFaizabad, Uttar Pradesh
30RDLRudauli (2)  22:52 22:51-22:53-1 2m--1647.148112mNRRudauli, Uttar Pradesh
31BBKBarabanki Junction (4)X  00:10-00:11-1m--2708.332122mNRPin-225001, Uttar Pradesh
32LKOLucknow Charbagh NR (9)XO  01:05-01:15-10m22736.867123mNR226004, Uttar Pradesh
33SPNShahjahanpur Junction (3)XO  03:43-03:48-5m--2901.726156mNRShahjahanpur, Uttar Pradesh
34BEBareilly Junction (4)  05:30 06:32-05:35 06:37-5m--2972.268174mNRBareilly, Uttar Pradesh
35RMURampur Junction (3)XO  06:31 07:33-06:32 07:38-1 5m--21035.219190mNRRampur, Uttar Pradesh
36MBMoradabad Junction (7)  07:20 09:05-07:30 09:15-10m521062.559201mNRMoradabad, Uttar Pradesh
37AMROAmroha (3)  08:00 09:46-08:01 09:48-1 2m221093.075217mNRAmroha, Uttar Pradesh
38HPUHapur Junction (4)O  10:05 10:47-10:10 10:52-5m--21166.542214mNRHapur Jn., Uttar Pradesh
39GZBGhaziabad Junction (6)XO  11:07 11:45-11:09 11:47-2m321203.228217mNRGhaziabad, Uttar Pradesh
40DLIOld Delhi Junction (16)11:55 12:30-12:45 13:50-50 80m321223.313219mNRNear Chandni Chowk Metro Station, Delhi NCT
41SZMDelhi Sabzi Mandi (2)  12:59 14:04-13:00 14:06-1 2m--21226.278220mNRGulabi Bagh, Delhi NCT
42SNPSonipat (3)X  13:35 14:37-13:36 14:39-1 2m--21266.660225mNRSonipat, Haryana
43GNUGanaur new halt!!XO  14:55-14:57-2m--21282.529222mNRGanaur, Haryana
44PNPPanipat Junction (5)  14:20 15:58-14:25 16:00-5 2m321311.871235mNRPanipat, Haryana
45KUNKarnal (3)  14:54 16:29-14:55 16:30-1m--21346.271253mNRKarnal, Haryana
46KKDEKurukshetra Junction (3)  15:26 16:58-15:28 17:00-2m121379.254260mNRKurukshetra, Haryana
47UMBAmbala Cantt. Junction (7)X  16:20 17:47-16:30 17:55-10 8m721421.338278mNRAmbala 133001, Haryana
48UBCAmbala City (3)X  16:43 18:07-16:44 18:09-1 2m321428.982273mNRNH-1, Haryana
49RPJRajpura Junction (3)X  17:00 18:24-17:01 18:26-1 2m121449.478272mNRNH-1, Punjab
50SIRSirhind Junction (3)X  17:45 18:45-17:47 18:47-2m121474.265271mNRSirhind, Punjab
51GVGMandi Gobindgarh (2)  17:57 18:56-17:58 18:58-1 2m221484.061268mNRMandi Gobindgarh, Punjab
52KNNKhanna (3)X  18:07 19:06-18:08 19:08-1 2m121492.244269mNRNH 1, Punjab
53DOADoraha (2)O  18:36 19:36-18:37 19:38-1 2m121512.548261mNRDoraha, Punjab
54LDHLudhiana Junction (7)X  19:30 20:06-19:40 20:10-10 4m221535.060246mNRLudhiana 141001, Punjab
55PHRPhillaur Junction (3)  20:04 20:23-20:05 20:25-1 2m221548.175246mNRPhillaur, Punjab
56PGWPhagwara Junction (3)  20:25 20:43-20:26 20:45-1 2m221570.661245mNRPhagwara, Punjab
57JRCJalandhar Cantt. Junction (3)X  20:40 21:01-20:42 21:03-2m121586.924239mNRNear Rama Mandi, Punjab
58JUCJalandhar City Junction (5)  20:45 21:15-20:55 21:20-10 5m121591.868239mNRJalandhar 144001, Punjab
59KREKartarpur (2)XO  21:19 21:33-21:20 21:35-1 2m221606.471236mNRKartarpur, Punjab
60BEASBeas Junction (2)X  21:44 21:53-21:45 21:55-1 2m121627.927238mNRBeas, Punjab
61ASRAmritsar Junction (5)•  23:25 23:30--421670.9-233mNRAmritsar 143002, Punjab
Scroll to Top
Scroll to Bottom